Concerto — JJ3855 — position and weather

sailwx.info

Track history (hours):
 
Tides and Currents Weather Stations Pressure Air Temp Water Temp Dewpoint Dewpoint Depression Visibility Wind Speed Wind Dir Waves Ship Positions

Concerto

Last reported at 2017-Mar-30 06:33 UTC. Time now 2017-Mar-30 07:02 UTC.
Position N 34°39' E 135°11'.

Length 74 m; draft 3 m.

Type: Passenger vessel. MMSI: 431000448.

Date/timePositionNaut miles runAvg speedWind from/ knotsBaromVisibWave heightAir tempDewpointWater temp
2017-Mar-30 06:33N 34°39' E 135°11'2 1.7
2017-Mar-30 05:33N 34°41' E 135°11'1 1.4
2017-Mar-30 04:33N 34°39' E 135°11'2 2.1
2017-Mar-30 03:33N 34°38' E 135°09'3 3.0
2017-Mar-30 02:32N 34°41' E 135°11'0 0.0
2017-Mar-30 01:26N 34°41' E 135°11'0 0.0
2017-Mar-30 00:32N 34°41' E 135°11'0 0.0
2017-Mar-29 23:32N 34°41' E 135°11'0 0.0
2017-Mar-29 22:32N 34°41' E 135°11'0 0.0
2017-Mar-29 21:26N 34°41' E 135°11'0 0.0
2017-Mar-29 20:32N 34°41' E 135°11'0 0.0
2017-Mar-29 19:32N 34°41' E 135°11'0 0.0
2017-Mar-29 18:32N 34°41' E 135°11'0 0.0
2017-Mar-29 17:32N 34°41' E 135°11'0 0.0
2017-Mar-29 16:26N 34°41' E 135°11'0 0.0
2017-Mar-29 15:32N 34°41' E 135°11'0 0.0
2017-Mar-29 14:32N 34°41' E 135°11'0 0.0
2017-Mar-29 13:32N 34°41' E 135°11'0 0.0
2017-Mar-29 12:32N 34°41' E 135°11'3 3.0
2017-Mar-29 11:33N 34°38' E 135°10'0 0.4
2017-Mar-29 10:34N 34°38' E 135°09'3 3.1
2017-Mar-29 09:27N 34°41' E 135°11'5 5.3
2017-Mar-29 08:33N 34°37' E 135°07'5 4.7
2017-Mar-29 07:33N 34°41' E 135°11'2 1.9
2017-Mar-29 06:33N 34°39' E 135°11'2 1.9
2017-Mar-29 05:33N 34°41' E 135°11'2 1.6
2017-Mar-29 04:33N 34°39' E 135°11'2 2.2
2017-Mar-29 03:33N 34°38' E 135°09'3 3.4
2017-Mar-29 02:33N 34°41' E 135°11'0 0.0
2017-Mar-29 01:28N 34°41' E 135°11'0 0.0
2017-Mar-29 00:28N 34°41' E 135°11'0 0.1
2017-Mar-28 23:28N 34°41' E 135°11'0 0.0
2017-Mar-28 22:28N 34°41' E 135°11'0 0.0
2017-Mar-28 21:28N 34°41' E 135°11'0 0.0
2017-Mar-28 20:28N 34°41' E 135°11'0 0.0
2017-Mar-28 19:22N 34°41' E 135°11'0 0.0
2017-Mar-28 18:22N 34°41' E 135°11'0 0.0
2017-Mar-28 17:28N 34°41' E 135°11'0 0.0
2017-Mar-28 16:28N 34°41' E 135°11'0 0.0
2017-Mar-28 15:28N 34°41' E 135°11'0 0.0
2017-Mar-28 14:28N 34°41' E 135°11'0 0.0
2017-Mar-28 13:28N 34°41' E 135°11'0 0.0
2017-Mar-28 12:28N 34°41' E 135°11'3 3.2
2017-Mar-28 11:33N 34°38' E 135°10'1 1.1
2017-Mar-28 10:33N 34°38' E 135°09'4 3.4
2017-Mar-28 09:29N 34°41' E 135°11'5 5.3
2017-Mar-28 08:33N 34°37' E 135°07'5 4.9
2017-Mar-28 07:33N 34°41' E 135°11'3 2.6
2017-Mar-28 06:34N 34°38' E 135°10'3 2.6
2017-Mar-28 05:33N 34°41' E 135°11'2 2.0
2017-Mar-28 04:33N 34°39' E 135°11'1 1.2
2017-Mar-28 03:33N 34°38' E 135°10'3 2.8
2017-Mar-28 02:33N 34°41' E 135°11'0 0.0
2017-Mar-28 01:33N 34°41' E 135°11'0 0.0
2017-Mar-28 00:33N 34°41' E 135°11'0 0.0
2017-Mar-27 23:33N 34°41' E 135°11'0 0.0
2017-Mar-27 22:33N 34°41' E 135°11'0 0.0
2017-Mar-27 21:33N 34°41' E 135°11'0 0.0
2017-Mar-27 20:33N 34°41' E 135°11'0 0.0
2017-Mar-27 19:33N 34°41' E 135°11'0 0.0
2017-Mar-27 18:21N 34°41' E 135°11'0 0.0
2017-Mar-27 17:33N 34°41' E 135°11'0 0.0
2017-Mar-27 16:27N 34°41' E 135°11'0 0.0
2017-Mar-27 15:33N 34°41' E 135°11'0 0.0
2017-Mar-27 14:33N 34°41' E 135°11'0 0.0
2017-Mar-27 13:27N 34°41' E 135°11'0 0.0
2017-Mar-27 12:33N 34°41' E 135°11'3 3.0
2017-Mar-27 11:33N 34°38' E 135°10'1 1.2
2017-Mar-27 10:33N 34°38' E 135°09'3 3.1
2017-Mar-27 09:26N 34°41' E 135°11'5 5.3
2017-Mar-27 08:33N 34°37' E 135°07'5 4.1
2017-Mar-27 07:23N 34°41' E 135°11'2 2.6
2017-Mar-27 06:33N 34°39' E 135°11'2 2.2
2017-Mar-27 05:33N 34°41' E 135°11'2 2.2
2017-Mar-27 04:33N 34°39' E 135°11'1 1.2
2017-Mar-27 03:33N 34°38' E 135°10'3 1.9
2017-Mar-27 02:05N 34°41' E 135°11'0 0.0
2017-Mar-27 01:29N 34°41' E 135°11'0 0.0
2017-Mar-27 00:29N 34°41' E 135°11'0 0.0
2017-Mar-26 23:29N 34°41' E 135°11'0 0.0
2017-Mar-26 22:29N 34°41' E 135°11'0 0.0
2017-Mar-26 21:29N 34°41' E 135°11'0 0.0
2017-Mar-26 20:29N 34°41' E 135°11'0 0.0
2017-Mar-26 19:29N 34°41' E 135°11'0 0.0
2017-Mar-26 18:23N 34°41' E 135°11'0 0.0
2017-Mar-26 17:29N 34°41' E 135°11'0 0.0
2017-Mar-26 16:29N 34°41' E 135°11'0 0.0
2017-Mar-26 15:29N 34°41' E 135°11'0 0.0
2017-Mar-26 14:29N 34°41' E 135°11'0 0.0
2017-Mar-26 13:29N 34°41' E 135°11'0 0.0
2017-Mar-26 12:29N 34°41' E 135°11'4 4.6
2017-Mar-26 11:34N 34°37' E 135°08'1 0.9
2017-Mar-26 10:34N 34°38' E 135°09'3 3.4
2017-Mar-26 09:32N 34°41' E 135°11'5 5.2
2017-Mar-26 08:33N 34°37' E 135°07'5 5.1
2017-Mar-26 07:33N 34°41' E 135°11'2 1.8
2017-Mar-26 06:34N 34°39' E 135°11'2 1.8
2017-Mar-26 05:33N 34°41' E 135°11'2 1.6
2017-Mar-26 04:33N 34°39' E 135°11'2 1.9
2017-Mar-26 03:33N 34°38' E 135°10'3 3.2
2017-Mar-26 02:33N 34°41' E 135°11'0 0.0
2017-Mar-26 01:33N 34°41' E 135°11'0 0.0
2017-Mar-26 00:22N 34°41' E 135°11'0 0.0
2017-Mar-25 23:28N 34°41' E 135°11'0 0.0
2017-Mar-25 22:22N 34°41' E 135°11'0 0.0
2017-Mar-25 21:28N 34°41' E 135°11'0 0.0
2017-Mar-25 20:28N 34°41' E 135°11'0 0.0
2017-Mar-25 19:28N 34°41' E 135°11'0 0.0
2017-Mar-25 18:28N 34°41' E 135°11'0 0.0
2017-Mar-25 17:28N 34°41' E 135°11'0 0.0
2017-Mar-25 16:28N 34°41' E 135°11'0 0.0
2017-Mar-25 15:28N 34°41' E 135°11'0 0.0
2017-Mar-25 14:28N 34°41' E 135°11'0 0.0
2017-Mar-25 13:28N 34°41' E 135°11'0 0.0
2017-Mar-25 12:28N 34°41' E 135°11'3 3.7
2017-Mar-25 11:33N 34°38' E 135°10'1 0.5
2017-Mar-25 10:33N 34°38' E 135°09'3 3.1
2017-Mar-25 09:25N 34°41' E 135°11'5 5.5
2017-Mar-25 08:33N 34°37' E 135°07'5 4.6
2017-Mar-25 07:32N 34°41' E 135°11'2 1.7
2017-Mar-25 06:34N 34°39' E 135°11'2 1.7
2017-Mar-25 05:33N 34°41' E 135°11'2 1.6
2017-Mar-25 04:33N 34°39' E 135°11'2 2.1
2017-Mar-25 03:33N 34°38' E 135°10'3 3.3
2017-Mar-25 02:33N 34°41' E 135°11'0 0.0
2017-Mar-25 01:33N 34°41' E 135°11'0 0.0
2017-Mar-25 00:33N 34°41' E 135°11'0 0.0
2017-Mar-24 23:27N 34°41' E 135°11'0 0.0
2017-Mar-24 22:33N 34°41' E 135°11'0 0.0
2017-Mar-24 21:27N 34°41' E 135°11'0 0.0
2017-Mar-24 20:33N 34°41' E 135°11'0 0.0
2017-Mar-24 19:33N 34°41' E 135°11'0 0.0
2017-Mar-24 18:33N 34°41' E 135°11'0 0.0
2017-Mar-24 17:27N 34°41' E 135°11'0 0.0
2017-Mar-24 16:33N 34°41' E 135°11'0 0.0
2017-Mar-24 15:27N 34°41' E 135°11'0 0.0
2017-Mar-24 14:27N 34°41' E 135°11'0 0.0
2017-Mar-24 13:33N 34°41' E 135°11'0 0.0
2017-Mar-24 12:33N 34°41' E 135°11'3 2.6
2017-Mar-24 11:33N 34°38' E 135°11'1 0.9
2017-Mar-24 10:33N 34°39' E 135°11'2 1.8
2017-Mar-24 09:32N 34°41' E 135°11'5 5.2
2017-Mar-24 08:33N 34°37' E 135°07'5 3.7
2017-Mar-24 07:11N 34°41' E 135°11'2 3.1
2017-Mar-24 06:33N 34°39' E 135°11'2 1.9
2017-Mar-24 05:33N 34°41' E 135°11'2 1.6
2017-Mar-24 04:33N 34°39' E 135°11'2 2.3
2017-Mar-24 03:33N 34°38' E 135°09'3 3.4
2017-Mar-24 02:33N 34°41' E 135°11'0 0.0
2017-Mar-24 01:33N 34°41' E 135°11'0 0.0
2017-Mar-24 00:33N 34°41' E 135°11'0 0.0
2017-Mar-23 23:33N 34°41' E 135°11'0 0.0
2017-Mar-23 22:27N 34°41' E 135°11'0 0.0
2017-Mar-23 21:33N 34°41' E 135°11'0 0.0
2017-Mar-23 20:33N 34°41' E 135°11'0 0.0
2017-Mar-23 19:33N 34°41' E 135°11'0 0.0
2017-Mar-23 18:33N 34°41' E 135°11'0 0.0
2017-Mar-23 17:33N 34°41' E 135°11'0 0.0
2017-Mar-23 16:33N 34°41' E 135°11'0 0.0
2017-Mar-23 15:33N 34°41' E 135°11'0 0.0
2017-Mar-23 14:21N 34°41' E 135°11'0 0.0
2017-Mar-23 13:33N 34°41' E 135°11'0 0.0
2017-Mar-23 12:33N 34°41' E 135°11'3 3.1
2017-Mar-23 11:33N 34°38' E 135°11'2 1.6
2017-Mar-23 10:33N 34°38' E 135°09'3 3.4
2017-Mar-23 09:33N 34°41' E 135°11'4 4.5
2017-Mar-23 08:33N 34°37' E 135°08'4 4.5
2017-Mar-23 07:33N 34°41' E 135°11'2 2.2
2017-Mar-23 06:33N 34°39' E 135°11'2 2.1
2017-Mar-23 05:33N 34°41' E 135°11'2 1.6
2017-Mar-23 04:33N 34°39' E 135°11'2 2.4
2017-Mar-23 03:33N 34°38' E 135°09'3 3.4
2017-Mar-23 02:33N 34°41' E 135°11'0 0.0
2017-Mar-23 01:31N 34°41' E 135°11'0 0.0
2017-Mar-23 00:31N 34°41' E 135°11'0 0.0
2017-Mar-22 23:31N 34°41' E 135°11'0 0.0
2017-Mar-22 22:31N 34°41' E 135°11'0 0.0
2017-Mar-22 20:31N 34°41' E 135°11'0 0.0
2017-Mar-22 19:31N 34°41' E 135°11'0 0.0
2017-Mar-22 18:31N 34°41' E 135°11'0 0.0
2017-Mar-22 17:31N 34°41' E 135°11'0 0.0
2017-Mar-22 16:31N 34°41' E 135°11'0 0.0
2017-Mar-22 15:31N 34°41' E 135°11'0 0.0
2017-Mar-22 14:31N 34°41' E 135°11'0 0.0
2017-Mar-22 12:31N 34°41' E 135°11'3 3.2
2017-Mar-22 11:34N 34°38' E 135°11'1 1.2
2017-Mar-22 10:34N 34°38' E 135°09'3 3.2
2017-Mar-22 09:30N 34°41' E 135°11'5 5.7
2017-Mar-22 08:33N 34°37' E 135°07'5 5.4
2017-Mar-22 07:33N 34°41' E 135°11'2 2.1
2017-Mar-22 06:33N 34°39' E 135°11'2 2.0
2017-Mar-22 05:33N 34°41' E 135°11'1 1.5
2017-Mar-22 04:33N 34°39' E 135°11'3 2.6
2017-Mar-22 03:33N 34°38' E 135°09'4 3.4
2017-Mar-22 02:29N 34°41' E 135°11'0 0.0
2017-Mar-22 01:29N 34°41' E 135°11'0 0.0
2017-Mar-22 00:29N 34°41' E 135°11'0 0.0
2017-Mar-21 23:29N 34°41' E 135°11'0 0.0
2017-Mar-21 22:29N 34°41' E 135°11'0 0.0
2017-Mar-21 21:29N 34°41' E 135°11'0 0.0
2017-Mar-21 20:23N 34°41' E 135°11'0 0.0
2017-Mar-21 19:29N 34°41' E 135°11'0 0.0
2017-Mar-21 18:29N 34°41' E 135°11'0 0.0
2017-Mar-21 17:29N 34°41' E 135°11'0 0.0
2017-Mar-21 16:29N 34°41' E 135°11'0 0.0
2017-Mar-21 15:29N 34°41' E 135°11'0 0.0
2017-Mar-21 14:29N 34°41' E 135°11'0 0.0
2017-Mar-21 13:29N 34°41' E 135°11'0 0.0
2017-Mar-21 12:29N 34°41' E 135°11'4 3.8
2017-Mar-21 11:33N 34°37' E 135°10'1 0.7
2017-Mar-21 10:33N 34°38' E 135°09'3 3.3
2017-Mar-21 09:31N 34°41' E 135°11'5 5.2
2017-Mar-21 08:34N 34°37' E 135°07'5 5.0
2017-Mar-21 07:33N 34°41' E 135°11'2 1.9
2017-Mar-21 06:33N 34°39' E 135°11'2 1.9
2017-Mar-21 05:33N 34°41' E 135°11'2 2.0
2017-Mar-21 04:33N 34°39' E 135°11'2 2.1
2017-Mar-21 03:33N 34°38' E 135°09'3 3.3
2017-Mar-21 02:32N 34°41' E 135°11'0 0.0
2017-Mar-21 01:26N 34°41' E 135°11'0 0.0
2017-Mar-21 00:26N 34°41' E 135°11'0 0.0
2017-Mar-20 23:26N 34°41' E 135°11'0 0.0
2017-Mar-20 22:32N 34°41' E 135°11'0 0.0
2017-Mar-20 21:32N 34°41' E 135°11'0 0.0
2017-Mar-20 20:32N 34°41' E 135°11'0 0.0
2017-Mar-20 19:32N 34°41' E 135°11'0 0.0
2017-Mar-20 18:32N 34°41' E 135°11'0 0.0
2017-Mar-20 17:32N 34°41' E 135°11'0 0.0
2017-Mar-20 16:32N 34°41' E 135°11'0 0.0
2017-Mar-20 15:26N 34°41' E 135°11'0 0.0
2017-Mar-20 14:32N 34°41' E 135°11'0 0.0
2017-Mar-20 13:32N 34°41' E 135°11'0 0.0
2017-Mar-20 12:32N 34°41' E 135°11'3 3.1
2017-Mar-20 11:33N 34°38' E 135°11'1 1.2
2017-Mar-20 10:33N 34°38' E 135°09'3 3.3
2017-Mar-20 09:33N 34°41' E 135°11'5 5.0
2017-Mar-20 08:33N 34°37' E 135°07'5 4.9
2017-Mar-20 07:33N 34°41' E 135°11'  
Track history (hours):
 
Tides and Currents Weather Stations Pressure Air Temp Water Temp Dewpoint Dewpoint Depression Visibility Wind Speed Wind Dir Waves Ship Positions

Concerto

Last reported at 2017-Mar-30 06:33 UTC. Time now 2017-Mar-30 07:02 UTC.
Position N 34°39' E 135°11'.

Length 74 m; draft 3 m.

Type: Passenger vessel. MMSI: 431000448.

Date/timePositionNaut miles runAvg speedWind from/ knotsBaromVisibWave heightAir tempDewpointWater temp
2017-Mar-30 06:33N 34°39' E 135°11'2 1.7
2017-Mar-30 05:33N 34°41' E 135°11'1 1.4
2017-Mar-30 04:33N 34°39' E 135°11'2 2.1
2017-Mar-30 03:33N 34°38' E 135°09'3 3.0
2017-Mar-30 02:32N 34°41' E 135°11'0 0.0
2017-Mar-30 01:26N 34°41' E 135°11'0 0.0
2017-Mar-30 00:32N 34°41' E 135°11'0 0.0
2017-Mar-29 23:32N 34°41' E 135°11'0 0.0
2017-Mar-29 22:32N 34°41' E 135°11'0 0.0
2017-Mar-29 21:26N 34°41' E 135°11'0 0.0
2017-Mar-29 20:32N 34°41' E 135°11'0 0.0
2017-Mar-29 19:32N 34°41' E 135°11'0 0.0
2017-Mar-29 18:32N 34°41' E 135°11'0 0.0
2017-Mar-29 17:32N 34°41' E 135°11'0 0.0
2017-Mar-29 16:26N 34°41' E 135°11'0 0.0
2017-Mar-29 15:32N 34°41' E 135°11'0 0.0
2017-Mar-29 14:32N 34°41' E 135°11'0 0.0
2017-Mar-29 13:32N 34°41' E 135°11'0 0.0
2017-Mar-29 12:32N 34°41' E 135°11'3 3.0
2017-Mar-29 11:33N 34°38' E 135°10'0 0.4
2017-Mar-29 10:34N 34°38' E 135°09'3 3.1
2017-Mar-29 09:27N 34°41' E 135°11'5 5.3
2017-Mar-29 08:33N 34°37' E 135°07'5 4.7
2017-Mar-29 07:33N 34°41' E 135°11'2 1.9
2017-Mar-29 06:33N 34°39' E 135°11'2 1.9
2017-Mar-29 05:33N 34°41' E 135°11'2 1.6
2017-Mar-29 04:33N 34°39' E 135°11'2 2.2
2017-Mar-29 03:33N 34°38' E 135°09'3 3.4
2017-Mar-29 02:33N 34°41' E 135°11'0 0.0
2017-Mar-29 01:28N 34°41' E 135°11'0 0.0
2017-Mar-29 00:28N 34°41' E 135°11'0 0.1
2017-Mar-28 23:28N 34°41' E 135°11'0 0.0
2017-Mar-28 22:28N 34°41' E 135°11'0 0.0
2017-Mar-28 21:28N 34°41' E 135°11'0 0.0
2017-Mar-28 20:28N 34°41' E 135°11'0 0.0
2017-Mar-28 19:22N 34°41' E 135°11'0 0.0
2017-Mar-28 18:22N 34°41' E 135°11'0 0.0
2017-Mar-28 17:28N 34°41' E 135°11'0 0.0
2017-Mar-28 16:28N 34°41' E 135°11'0 0.0
2017-Mar-28 15:28N 34°41' E 135°11'0 0.0
2017-Mar-28 14:28N 34°41' E 135°11'0 0.0
2017-Mar-28 13:28N 34°41' E 135°11'0 0.0
2017-Mar-28 12:28N 34°41' E 135°11'3 3.2
2017-Mar-28 11:33N 34°38' E 135°10'1 1.1
2017-Mar-28 10:33N 34°38' E 135°09'4 3.4
2017-Mar-28 09:29N 34°41' E 135°11'5 5.3
2017-Mar-28 08:33N 34°37' E 135°07'5 4.9
2017-Mar-28 07:33N 34°41' E 135°11'3 2.6
2017-Mar-28 06:34N 34°38' E 135°10'3 2.6
2017-Mar-28 05:33N 34°41' E 135°11'2 2.0
2017-Mar-28 04:33N 34°39' E 135°11'1 1.2
2017-Mar-28 03:33N 34°38' E 135°10'3 2.8
2017-Mar-28 02:33N 34°41' E 135°11'0 0.0
2017-Mar-28 01:33N 34°41' E 135°11'0 0.0
2017-Mar-28 00:33N 34°41' E 135°11'0 0.0
2017-Mar-27 23:33N 34°41' E 135°11'0 0.0
2017-Mar-27 22:33N 34°41' E 135°11'0 0.0
2017-Mar-27 21:33N 34°41' E 135°11'0 0.0
2017-Mar-27 20:33N 34°41' E 135°11'0 0.0
2017-Mar-27 19:33N 34°41' E 135°11'0 0.0
2017-Mar-27 18:21N 34°41' E 135°11'0 0.0
2017-Mar-27 17:33N 34°41' E 135°11'0 0.0
2017-Mar-27 16:27N 34°41' E 135°11'0 0.0
2017-Mar-27 15:33N 34°41' E 135°11'0 0.0
2017-Mar-27 14:33N 34°41' E 135°11'0 0.0
2017-Mar-27 13:27N 34°41' E 135°11'0 0.0
2017-Mar-27 12:33N 34°41' E 135°11'3 3.0
2017-Mar-27 11:33N 34°38' E 135°10'1 1.2
2017-Mar-27 10:33N 34°38' E 135°09'3 3.1
2017-Mar-27 09:26N 34°41' E 135°11'5 5.3
2017-Mar-27 08:33N 34°37' E 135°07'5 4.1
2017-Mar-27 07:23N 34°41' E 135°11'2 2.6
2017-Mar-27 06:33N 34°39' E 135°11'2 2.2
2017-Mar-27 05:33N 34°41' E 135°11'2 2.2
2017-Mar-27 04:33N 34°39' E 135°11'1 1.2
2017-Mar-27 03:33N 34°38' E 135°10'3 1.9
2017-Mar-27 02:05N 34°41' E 135°11'0 0.0
2017-Mar-27 01:29N 34°41' E 135°11'0 0.0
2017-Mar-27 00:29N 34°41' E 135°11'0 0.0
2017-Mar-26 23:29N 34°41' E 135°11'0 0.0
2017-Mar-26 22:29N 34°41' E 135°11'0 0.0
2017-Mar-26 21:29N 34°41' E 135°11'0 0.0
2017-Mar-26 20:29N 34°41' E 135°11'0 0.0
2017-Mar-26 19:29N 34°41' E 135°11'0 0.0
2017-Mar-26 18:23N 34°41' E 135°11'0 0.0
2017-Mar-26 17:29N 34°41' E 135°11'0 0.0
2017-Mar-26 16:29N 34°41' E 135°11'0 0.0
2017-Mar-26 15:29N 34°41' E 135°11'0 0.0
2017-Mar-26 14:29N 34°41' E 135°11'0 0.0
2017-Mar-26 13:29N 34°41' E 135°11'0 0.0
2017-Mar-26 12:29N 34°41' E 135°11'4 4.6
2017-Mar-26 11:34N 34°37' E 135°08'1 0.9
2017-Mar-26 10:34N 34°38' E 135°09'3 3.4
2017-Mar-26 09:32N 34°41' E 135°11'5 5.2
2017-Mar-26 08:33N 34°37' E 135°07'5 5.1
2017-Mar-26 07:33N 34°41' E 135°11'2 1.8
2017-Mar-26 06:34N 34°39' E 135°11'2 1.8
2017-Mar-26 05:33N 34°41' E 135°11'2 1.6
2017-Mar-26 04:33N 34°39' E 135°11'2 1.9
2017-Mar-26 03:33N 34°38' E 135°10'3 3.2
2017-Mar-26 02:33N 34°41' E 135°11'0 0.0
2017-Mar-26 01:33N 34°41' E 135°11'0 0.0
2017-Mar-26 00:22N 34°41' E 135°11'0 0.0
2017-Mar-25 23:28N 34°41' E 135°11'0 0.0
2017-Mar-25 22:22N 34°41' E 135°11'0 0.0
2017-Mar-25 21:28N 34°41' E 135°11'0 0.0
2017-Mar-25 20:28N 34°41' E 135°11'0 0.0
2017-Mar-25 19:28N 34°41' E 135°11'0 0.0
2017-Mar-25 18:28N 34°41' E 135°11'0 0.0
2017-Mar-25 17:28N 34°41' E 135°11'0 0.0
2017-Mar-25 16:28N 34°41' E 135°11'0 0.0
2017-Mar-25 15:28N 34°41' E 135°11'0 0.0
2017-Mar-25 14:28N 34°41' E 135°11'0 0.0
2017-Mar-25 13:28N 34°41' E 135°11'0 0.0
2017-Mar-25 12:28N 34°41' E 135°11'3 3.7
2017-Mar-25 11:33N 34°38' E 135°10'1 0.5
2017-Mar-25 10:33N 34°38' E 135°09'3 3.1
2017-Mar-25 09:25N 34°41' E 135°11'5 5.5
2017-Mar-25 08:33N 34°37' E 135°07'5 4.6
2017-Mar-25 07:32N 34°41' E 135°11'2 1.7
2017-Mar-25 06:34N 34°39' E 135°11'2 1.7
2017-Mar-25 05:33N 34°41' E 135°11'2 1.6
2017-Mar-25 04:33N 34°39' E 135°11'2 2.1
2017-Mar-25 03:33N 34°38' E 135°10'3 3.3
2017-Mar-25 02:33N 34°41' E 135°11'0 0.0
2017-Mar-25 01:33N 34°41' E 135°11'0 0.0
2017-Mar-25 00:33N 34°41' E 135°11'0 0.0
2017-Mar-24 23:27N 34°41' E 135°11'0 0.0
2017-Mar-24 22:33N 34°41' E 135°11'0 0.0
2017-Mar-24 21:27N 34°41' E 135°11'0 0.0
2017-Mar-24 20:33N 34°41' E 135°11'0 0.0
2017-Mar-24 19:33N 34°41' E 135°11'0 0.0
2017-Mar-24 18:33N 34°41' E 135°11'0 0.0
2017-Mar-24 17:27N 34°41' E 135°11'0 0.0
2017-Mar-24 16:33N 34°41' E 135°11'0 0.0
2017-Mar-24 15:27N 34°41' E 135°11'0 0.0
2017-Mar-24 14:27N 34°41' E 135°11'0 0.0
2017-Mar-24 13:33N 34°41' E 135°11'0 0.0
2017-Mar-24 12:33N 34°41' E 135°11'3 2.6
2017-Mar-24 11:33N 34°38' E 135°11'1 0.9
2017-Mar-24 10:33N 34°39' E 135°11'2 1.8
2017-Mar-24 09:32N 34°41' E 135°11'5 5.2
2017-Mar-24 08:33N 34°37' E 135°07'5 3.7
2017-Mar-24 07:11N 34°41' E 135°11'2 3.1
2017-Mar-24 06:33N 34°39' E 135°11'2 1.9
2017-Mar-24 05:33N 34°41' E 135°11'2 1.6
2017-Mar-24 04:33N 34°39' E 135°11'2 2.3
2017-Mar-24 03:33N 34°38' E 135°09'3 3.4
2017-Mar-24 02:33N 34°41' E 135°11'0 0.0
2017-Mar-24 01:33N 34°41' E 135°11'0 0.0
2017-Mar-24 00:33N 34°41' E 135°11'0 0.0
2017-Mar-23 23:33N 34°41' E 135°11'0 0.0
2017-Mar-23 22:27N 34°41' E 135°11'0 0.0
2017-Mar-23 21:33N 34°41' E 135°11'0 0.0
2017-Mar-23 20:33N 34°41' E 135°11'0 0.0
2017-Mar-23 19:33N 34°41' E 135°11'0 0.0
2017-Mar-23 18:33N 34°41' E 135°11'0 0.0
2017-Mar-23 17:33N 34°41' E 135°11'0 0.0
2017-Mar-23 16:33N 34°41' E 135°11'0 0.0
2017-Mar-23 15:33N 34°41' E 135°11'0 0.0
2017-Mar-23 14:21N 34°41' E 135°11'0 0.0
2017-Mar-23 13:33N 34°41' E 135°11'0 0.0
2017-Mar-23 12:33N 34°41' E 135°11'3 3.1
2017-Mar-23 11:33N 34°38' E 135°11'2 1.6
2017-Mar-23 10:33N 34°38' E 135°09'3 3.4
2017-Mar-23 09:33N 34°41' E 135°11'4 4.5
2017-Mar-23 08:33N 34°37' E 135°08'4 4.5
2017-Mar-23 07:33N 34°41' E 135°11'2 2.2
2017-Mar-23 06:33N 34°39' E 135°11'2 2.1
2017-Mar-23 05:33N 34°41' E 135°11'2 1.6
2017-Mar-23 04:33N 34°39' E 135°11'2 2.4
2017-Mar-23 03:33N 34°38' E 135°09'3 3.4
2017-Mar-23 02:33N 34°41' E 135°11'0 0.0
2017-Mar-23 01:31N 34°41' E 135°11'0 0.0
2017-Mar-23 00:31N 34°41' E 135°11'0 0.0
2017-Mar-22 23:31N 34°41' E 135°11'0 0.0
2017-Mar-22 22:31N 34°41' E 135°11'0 0.0
2017-Mar-22 20:31N 34°41' E 135°11'0 0.0
2017-Mar-22 19:31N 34°41' E 135°11'0 0.0
2017-Mar-22 18:31N 34°41' E 135°11'0 0.0
2017-Mar-22 17:31N 34°41' E 135°11'0 0.0
2017-Mar-22 16:31N 34°41' E 135°11'0 0.0
2017-Mar-22 15:31N 34°41' E 135°11'0 0.0
2017-Mar-22 14:31N 34°41' E 135°11'0 0.0
2017-Mar-22 12:31N 34°41' E 135°11'3 3.2
2017-Mar-22 11:34N 34°38' E 135°11'1 1.2
2017-Mar-22 10:34N 34°38' E 135°09'3 3.2
2017-Mar-22 09:30N 34°41' E 135°11'5 5.7
2017-Mar-22 08:33N 34°37' E 135°07'5 5.4
2017-Mar-22 07:33N 34°41' E 135°11'2 2.1
2017-Mar-22 06:33N 34°39' E 135°11'2 2.0
2017-Mar-22 05:33N 34°41' E 135°11'1 1.5
2017-Mar-22 04:33N 34°39' E 135°11'3 2.6
2017-Mar-22 03:33N 34°38' E 135°09'4 3.4
2017-Mar-22 02:29N 34°41' E 135°11'0 0.0
2017-Mar-22 01:29N 34°41' E 135°11'0 0.0
2017-Mar-22 00:29N 34°41' E 135°11'0 0.0
2017-Mar-21 23:29N 34°41' E 135°11'0 0.0
2017-Mar-21 22:29N 34°41' E 135°11'0 0.0
2017-Mar-21 21:29N 34°41' E 135°11'0 0.0
2017-Mar-21 20:23N 34°41' E 135°11'0 0.0
2017-Mar-21 19:29N 34°41' E 135°11'0 0.0
2017-Mar-21 18:29N 34°41' E 135°11'0 0.0
2017-Mar-21 17:29N 34°41' E 135°11'0 0.0
2017-Mar-21 16:29N 34°41' E 135°11'0 0.0
2017-Mar-21 15:29N 34°41' E 135°11'0 0.0
2017-Mar-21 14:29N 34°41' E 135°11'0 0.0
2017-Mar-21 13:29N 34°41' E 135°11'0 0.0
2017-Mar-21 12:29N 34°41' E 135°11'4 3.8
2017-Mar-21 11:33N 34°37' E 135°10'1 0.7
2017-Mar-21 10:33N 34°38' E 135°09'3 3.3
2017-Mar-21 09:31N 34°41' E 135°11'5 5.2
2017-Mar-21 08:34N 34°37' E 135°07'5 5.0
2017-Mar-21 07:33N 34°41' E 135°11'2 1.9
2017-Mar-21 06:33N 34°39' E 135°11'2 1.9
2017-Mar-21 05:33N 34°41' E 135°11'2 2.0
2017-Mar-21 04:33N 34°39' E 135°11'2 2.1
2017-Mar-21 03:33N 34°38' E 135°09'3 3.3
2017-Mar-21 02:32N 34°41' E 135°11'0 0.0
2017-Mar-21 01:26N 34°41' E 135°11'0 0.0
2017-Mar-21 00:26N 34°41' E 135°11'0 0.0
2017-Mar-20 23:26N 34°41' E 135°11'0 0.0
2017-Mar-20 22:32N 34°41' E 135°11'0 0.0
2017-Mar-20 21:32N 34°41' E 135°11'0 0.0
2017-Mar-20 20:32N 34°41' E 135°11'0 0.0
2017-Mar-20 19:32N 34°41' E 135°11'0 0.0
2017-Mar-20 18:32N 34°41' E 135°11'0 0.0
2017-Mar-20 17:32N 34°41' E 135°11'0 0.0
2017-Mar-20 16:32N 34°41' E 135°11'0 0.0
2017-Mar-20 15:26N 34°41' E 135°11'0 0.0
2017-Mar-20 14:32N 34°41' E 135°11'0 0.0
2017-Mar-20 13:32N 34°41' E 135°11'0 0.0
2017-Mar-20 12:32N 34°41' E 135°11'3 3.1
2017-Mar-20 11:33N 34°38' E 135°11'1 1.2
2017-Mar-20 10:33N 34°38' E 135°09'3 3.3
2017-Mar-20 09:33N 34°41' E 135°11'5 5.0
2017-Mar-20 08:33N 34°37' E 135°07'5 4.9
2017-Mar-20 07:33N 34°41' E 135°11'  

Dump ship's entire track history